sensor_id;sensor_type;location;lat;lon;timestamp;P1;durP1;ratioP1;P2;durP2;ratioP2
49241;SDS011;35079;52.704;13.814;2023-01-28T00:00:34;7.22;;;3.15;;
49241;SDS011;35079;52.704;13.814;2023-01-28T00:03:00;5.95;;;3.33;;
49241;SDS011;35079;52.704;13.814;2023-01-28T00:05:25;6.63;;;3.58;;
49241;SDS011;35079;52.704;13.814;2023-01-28T00:07:51;6.25;;;3.38;;
49241;SDS011;35079;52.704;13.814;2023-01-28T00:10:17;9.20;;;3.45;;
49241;SDS011;35079;52.704;13.814;2023-01-28T00:12:43;9.68;;;4.47;;
49241;SDS011;35079;52.704;13.814;2023-01-28T00:15:09;7.40;;;3.83;;
49241;SDS011;35079;52.704;13.814;2023-01-28T00:17:35;8.02;;;3.75;;
49241;SDS011;35079;52.704;13.814;2023-01-28T00:20:03;10.18;;;3.97;;
49241;SDS011;35079;52.704;13.814;2023-01-28T00:22:29;8.48;;;3.42;;
49241;SDS011;35079;52.704;13.814;2023-01-28T00:24:55;7.00;;;3.35;;
49241;SDS011;35079;52.704;13.814;2023-01-28T00:27:21;9.00;;;3.47;;
49241;SDS011;35079;52.704;13.814;2023-01-28T00:29:47;8.27;;;3.55;;
49241;SDS011;35079;52.704;13.814;2023-01-28T00:32:13;9.48;;;3.80;;
49241;SDS011;35079;52.704;13.814;2023-01-28T00:34:38;8.68;;;3.40;;
49241;SDS011;35079;52.704;13.814;2023-01-28T00:37:04;7.18;;;3.88;;
49241;SDS011;35079;52.704;13.814;2023-01-28T00:39:30;9.23;;;3.20;;
49241;SDS011;35079;52.704;13.814;2023-01-28T00:41:56;6.13;;;3.40;;
49241;SDS011;35079;52.704;13.814;2023-01-28T00:44:22;8.25;;;3.55;;
49241;SDS011;35079;52.704;13.814;2023-01-28T00:46:47;6.45;;;3.35;;
49241;SDS011;35079;52.704;13.814;2023-01-28T00:49:13;6.90;;;3.25;;
49241;SDS011;35079;52.704;13.814;2023-01-28T00:51:38;6.70;;;3.55;;
49241;SDS011;35079;52.704;13.814;2023-01-28T00:54:04;7.82;;;3.42;;
49241;SDS011;35079;52.704;13.814;2023-01-28T00:56:30;7.10;;;3.55;;
49241;SDS011;35079;52.704;13.814;2023-01-28T00:58:56;6.28;;;3.13;;
49241;SDS011;35079;52.704;13.814;2023-01-28T01:01:23;8.55;;;3.35;;
49241;SDS011;35079;52.704;13.814;2023-01-28T01:03:50;7.35;;;3.20;;
49241;SDS011;35079;52.704;13.814;2023-01-28T01:06:22;4.85;;;2.90;;
49241;SDS011;35079;52.704;13.814;2023-01-28T01:08:49;6.07;;;3.00;;
49241;SDS011;35079;52.704;13.814;2023-01-28T01:11:15;5.50;;;3.08;;
49241;SDS011;35079;52.704;13.814;2023-01-28T01:13:41;6.85;;;2.97;;
49241;SDS011;35079;52.704;13.814;2023-01-28T01:16:11;6.07;;;2.95;;
49241;SDS011;35079;52.704;13.814;2023-01-28T01:18:38;6.18;;;2.85;;
49241;SDS011;35079;52.704;13.814;2023-01-28T01:21:17;8.55;;;3.33;;
49241;SDS011;35079;52.704;13.814;2023-01-28T01:23:44;9.15;;;2.92;;
49241;SDS011;35079;52.704;13.814;2023-01-28T01:26:11;8.85;;;2.85;;
49241;SDS011;35079;52.704;13.814;2023-01-28T01:28:37;8.38;;;3.50;;
49241;SDS011;35079;52.704;13.814;2023-01-28T01:31:09;8.13;;;3.45;;
49241;SDS011;35079;52.704;13.814;2023-01-28T01:33:36;8.23;;;3.10;;
49241;SDS011;35079;52.704;13.814;2023-01-28T01:36:03;7.13;;;3.28;;
49241;SDS011;35079;52.704;13.814;2023-01-28T01:38:29;11.43;;;3.55;;
49241;SDS011;35079;52.704;13.814;2023-01-28T01:40:58;7.78;;;3.13;;
49241;SDS011;35079;52.704;13.814;2023-01-28T01:43:25;6.95;;;3.40;;
49241;SDS011;35079;52.704;13.814;2023-01-28T01:48:48;8.57;;;3.30;;
49241;SDS011;35079;52.704;13.814;2023-01-28T01:51:16;6.50;;;3.08;;
49241;SDS011;35079;52.704;13.814;2023-01-28T01:53:45;5.00;;;2.97;;
49241;SDS011;35079;52.704;13.814;2023-01-28T01:56:16;4.97;;;2.88;;
49241;SDS011;35079;52.704;13.814;2023-01-28T01:58:58;7.32;;;3.38;;
49241;SDS011;35079;52.704;13.814;2023-01-28T02:01:26;9.00;;;3.20;;
49241;SDS011;35079;52.704;13.814;2023-01-28T02:06:20;7.28;;;3.05;;
49241;SDS011;35079;52.704;13.814;2023-01-28T02:08:47;7.47;;;3.35;;
49241;SDS011;35079;52.704;13.814;2023-01-28T02:11:12;7.70;;;3.33;;
49241;SDS011;35079;52.704;13.814;2023-01-28T02:13:41;5.45;;;2.72;;
49241;SDS011;35079;52.704;13.814;2023-01-28T02:16:10;6.88;;;3.25;;
49241;SDS011;35079;52.704;13.814;2023-01-28T02:18:37;7.93;;;3.17;;
49241;SDS011;35079;52.704;13.814;2023-01-28T02:29:13;6.80;;;3.05;;
49241;SDS011;35079;52.704;13.814;2023-01-28T02:31:54;6.85;;;2.83;;
49241;SDS011;35079;52.704;13.814;2023-01-28T02:34:39;5.43;;;2.75;;
49241;SDS011;35079;52.704;13.814;2023-01-28T02:37:17;6.95;;;2.78;;
49241;SDS011;35079;52.704;13.814;2023-01-28T02:39:48;6.00;;;3.08;;
49241;SDS011;35079;52.704;13.814;2023-01-28T02:42:29;4.32;;;2.25;;
49241;SDS011;35079;52.704;13.814;2023-01-28T02:44:56;7.55;;;2.85;;
49241;SDS011;35079;52.704;13.814;2023-01-28T02:47:22;4.38;;;2.42;;
49241;SDS011;35079;52.704;13.814;2023-01-28T02:50:09;7.60;;;3.25;;
49241;SDS011;35079;52.704;13.814;2023-01-28T03:02:09;5.72;;;2.65;;
49241;SDS011;35079;52.704;13.814;2023-01-28T03:04:44;5.13;;;2.72;;
49241;SDS011;35079;52.704;13.814;2023-01-28T03:07:34;5.55;;;2.60;;
49241;SDS011;35079;52.704;13.814;2023-01-28T03:10:03;4.90;;;2.15;;
49241;SDS011;35079;52.704;13.814;2023-01-28T03:12:31;5.07;;;2.13;;
49241;SDS011;35079;52.704;13.814;2023-01-28T03:15:22;4.97;;;2.10;;
49241;SDS011;35079;52.704;13.814;2023-01-28T03:18:14;5.22;;;2.00;;
49241;SDS011;35079;52.704;13.814;2023-01-28T03:24:10;4.97;;;2.08;;
49241;SDS011;35079;52.704;13.814;2023-01-28T03:27:01;3.38;;;1.88;;
49241;SDS011;35079;52.704;13.814;2023-01-28T03:35:43;7.82;;;2.10;;
49241;SDS011;35079;52.704;13.814;2023-01-28T03:38:28;5.78;;;2.08;;
49241;SDS011;35079;52.704;13.814;2023-01-28T03:41:01;5.20;;;2.38;;
49241;SDS011;35079;52.704;13.814;2023-01-28T03:43:30;6.47;;;1.92;;
49241;SDS011;35079;52.704;13.814;2023-01-28T03:45:56;4.20;;;2.17;;
49241;SDS011;35079;52.704;13.814;2023-01-28T03:48:23;3.85;;;2.10;;
49241;SDS011;35079;52.704;13.814;2023-01-28T03:50:50;4.40;;;2.08;;
49241;SDS011;35079;52.704;13.814;2023-01-28T03:53:16;3.55;;;1.88;;
49241;SDS011;35079;52.704;13.814;2023-01-28T03:55:43;2.85;;;2.20;;
49241;SDS011;35079;52.704;13.814;2023-01-28T03:58:10;5.03;;;2.05;;
49241;SDS011;35079;52.704;13.814;2023-01-28T04:00:38;5.43;;;2.00;;
49241;SDS011;35079;52.704;13.814;2023-01-28T04:03:09;5.00;;;2.13;;
49241;SDS011;35079;52.704;13.814;2023-01-28T04:05:42;2.08;;;1.88;;
49241;SDS011;35079;52.704;13.814;2023-01-28T04:08:09;2.40;;;2.17;;
49241;SDS011;35079;52.704;13.814;2023-01-28T04:10:37;2.30;;;1.80;;
49241;SDS011;35079;52.704;13.814;2023-01-28T04:13:03;5.38;;;2.10;;
49241;SDS011;35079;52.704;13.814;2023-01-28T04:15:29;5.55;;;1.90;;
49241;SDS011;35079;52.704;13.814;2023-01-28T04:17:55;4.50;;;2.33;;
49241;SDS011;35079;52.704;13.814;2023-01-28T04:20:21;3.40;;;2.10;;
49241;SDS011;35079;52.704;13.814;2023-01-28T04:22:47;2.15;;;1.92;;
49241;SDS011;35079;52.704;13.814;2023-01-28T04:25:12;4.90;;;1.67;;
49241;SDS011;35079;52.704;13.814;2023-01-28T04:27:38;4.95;;;1.95;;
49241;SDS011;35079;52.704;13.814;2023-01-28T04:30:04;3.30;;;2.28;;
49241;SDS011;35079;52.704;13.814;2023-01-28T04:32:30;3.47;;;1.95;;
49241;SDS011;35079;52.704;13.814;2023-01-28T04:34:55;3.05;;;2.30;;
49241;SDS011;35079;52.704;13.814;2023-01-28T04:37:21;3.58;;;2.03;;
49241;SDS011;35079;52.704;13.814;2023-01-28T04:40:02;3.75;;;1.75;;
49241;SDS011;35079;52.704;13.814;2023-01-28T04:42:28;3.47;;;2.00;;
49241;SDS011;35079;52.704;13.814;2023-01-28T04:44:53;3.40;;;2.10;;
49241;SDS011;35079;52.704;13.814;2023-01-28T04:47:19;8.15;;;2.60;;
49241;SDS011;35079;52.704;13.814;2023-01-28T04:49:56;5.53;;;3.20;;
49241;SDS011;35079;52.704;13.814;2023-01-28T04:52:21;5.75;;;3.25;;
49241;SDS011;35079;52.704;13.814;2023-01-28T04:54:47;8.88;;;3.55;;
49241;SDS011;35079;52.704;13.814;2023-01-28T04:57:12;8.13;;;3.60;;
49241;SDS011;35079;52.704;13.814;2023-01-28T04:59:39;8.02;;;3.30;;
49241;SDS011;35079;52.704;13.814;2023-01-28T05:02:05;4.40;;;3.00;;
49241;SDS011;35079;52.704;13.814;2023-01-28T05:04:30;7.25;;;3.22;;
49241;SDS011;35079;52.704;13.814;2023-01-28T05:06:57;5.60;;;2.90;;
49241;SDS011;35079;52.704;13.814;2023-01-28T05:09:22;8.82;;;4.05;;
49241;SDS011;35079;52.704;13.814;2023-01-28T05:11:48;8.32;;;4.38;;
49241;SDS011;35079;52.704;13.814;2023-01-28T05:14:14;8.50;;;4.10;;
49241;SDS011;35079;52.704;13.814;2023-01-28T05:16:39;8.35;;;4.10;;
49241;SDS011;35079;52.704;13.814;2023-01-28T05:19:05;9.60;;;3.67;;
49241;SDS011;35079;52.704;13.814;2023-01-28T05:21:31;6.15;;;3.45;;
49241;SDS011;35079;52.704;13.814;2023-01-28T05:23:56;6.93;;;3.35;;
49241;SDS011;35079;52.704;13.814;2023-01-28T05:26:22;8.38;;;4.03;;
49241;SDS011;35079;52.704;13.814;2023-01-28T05:28:48;9.15;;;3.88;;
49241;SDS011;35079;52.704;13.814;2023-01-28T05:31:15;6.78;;;4.50;;
49241;SDS011;35079;52.704;13.814;2023-01-28T05:33:40;7.25;;;3.97;;
49241;SDS011;35079;52.704;13.814;2023-01-28T05:36:06;9.73;;;4.68;;
49241;SDS011;35079;52.704;13.814;2023-01-28T05:38:32;11.18;;;4.90;;
49241;SDS011;35079;52.704;13.814;2023-01-28T05:40:57;9.32;;;4.53;;
49241;SDS011;35079;52.704;13.814;2023-01-28T05:43:23;7.53;;;4.05;;
49241;SDS011;35079;52.704;13.814;2023-01-28T05:45:48;8.75;;;3.80;;
49241;SDS011;35079;52.704;13.814;2023-01-28T05:48:14;8.75;;;4.85;;
49241;SDS011;35079;52.704;13.814;2023-01-28T05:50:40;7.82;;;4.57;;
49241;SDS011;35079;52.704;13.814;2023-01-28T05:53:06;7.68;;;4.43;;
49241;SDS011;35079;52.704;13.814;2023-01-28T05:55:32;9.00;;;4.50;;
49241;SDS011;35079;52.704;13.814;2023-01-28T05:57:57;10.70;;;4.55;;
49241;SDS011;35079;52.704;13.814;2023-01-28T06:00:23;10.50;;;5.03;;
49241;SDS011;35079;52.704;13.814;2023-01-28T06:02:52;11.05;;;5.38;;
49241;SDS011;35079;52.704;13.814;2023-01-28T06:05:18;14.80;;;6.10;;
49241;SDS011;35079;52.704;13.814;2023-01-28T06:07:44;16.52;;;7.35;;
49241;SDS011;35079;52.704;13.814;2023-01-28T06:10:10;11.48;;;5.90;;
49241;SDS011;35079;52.704;13.814;2023-01-28T06:12:36;13.75;;;6.18;;
49241;SDS011;35079;52.704;13.814;2023-01-28T06:15:02;11.55;;;6.10;;
49241;SDS011;35079;52.704;13.814;2023-01-28T06:17:27;11.50;;;5.95;;
49241;SDS011;35079;52.704;13.814;2023-01-28T06:19:53;11.80;;;6.10;;
49241;SDS011;35079;52.704;13.814;2023-01-28T06:22:19;12.27;;;5.80;;
49241;SDS011;35079;52.704;13.814;2023-01-28T06:24:44;15.52;;;6.63;;
49241;SDS011;35079;52.704;13.814;2023-01-28T06:27:10;14.30;;;6.70;;
49241;SDS011;35079;52.704;13.814;2023-01-28T06:29:37;15.68;;;7.00;;
49241;SDS011;35079;52.704;13.814;2023-01-28T06:32:03;13.55;;;5.32;;
49241;SDS011;35079;52.704;13.814;2023-01-28T06:34:29;10.13;;;5.38;;
49241;SDS011;35079;52.704;13.814;2023-01-28T06:36:54;9.35;;;4.65;;
49241;SDS011;35079;52.704;13.814;2023-01-28T06:39:20;9.55;;;5.32;;
49241;SDS011;35079;52.704;13.814;2023-01-28T06:41:46;9.85;;;5.30;;
49241;SDS011;35079;52.704;13.814;2023-01-28T06:44:12;8.88;;;4.90;;
49241;SDS011;35079;52.704;13.814;2023-01-28T06:46:38;9.80;;;5.30;;
49241;SDS011;35079;52.704;13.814;2023-01-28T06:49:03;13.07;;;6.57;;
49241;SDS011;35079;52.704;13.814;2023-01-28T06:51:29;12.95;;;6.32;;
49241;SDS011;35079;52.704;13.814;2023-01-28T06:53:55;12.63;;;6.50;;
49241;SDS011;35079;52.704;13.814;2023-01-28T06:56:20;14.73;;;7.50;;
49241;SDS011;35079;52.704;13.814;2023-01-28T06:58:46;15.50;;;7.82;;
49241;SDS011;35079;52.704;13.814;2023-01-28T07:01:12;17.50;;;8.18;;
49241;SDS011;35079;52.704;13.814;2023-01-28T07:03:37;15.00;;;8.52;;
49241;SDS011;35079;52.704;13.814;2023-01-28T07:06:03;16.05;;;8.68;;
49241;SDS011;35079;52.704;13.814;2023-01-28T07:08:29;17.17;;;8.40;;
49241;SDS011;35079;52.704;13.814;2023-01-28T07:10:55;18.38;;;8.35;;
49241;SDS011;35079;52.704;13.814;2023-01-28T07:13:20;16.35;;;9.05;;
49241;SDS011;35079;52.704;13.814;2023-01-28T07:15:46;15.77;;;7.78;;
49241;SDS011;35079;52.704;13.814;2023-01-28T07:18:13;13.15;;;6.90;;
49241;SDS011;35079;52.704;13.814;2023-01-28T07:20:38;12.15;;;6.43;;
49241;SDS011;35079;52.704;13.814;2023-01-28T07:23:04;12.30;;;7.20;;
49241;SDS011;35079;52.704;13.814;2023-01-28T07:25:29;13.27;;;6.60;;
49241;SDS011;35079;52.704;13.814;2023-01-28T07:27:55;19.25;;;7.85;;
49241;SDS011;35079;52.704;13.814;2023-01-28T07:30:21;17.17;;;9.25;;
49241;SDS011;35079;52.704;13.814;2023-01-28T07:32:51;17.42;;;9.02;;
49241;SDS011;35079;52.704;13.814;2023-01-28T07:35:21;16.50;;;9.25;;
49241;SDS011;35079;52.704;13.814;2023-01-28T07:37:51;21.10;;;9.02;;
49241;SDS011;35079;52.704;13.814;2023-01-28T07:40:20;17.70;;;8.00;;
49241;SDS011;35079;52.704;13.814;2023-01-28T07:42:46;17.90;;;8.50;;
49241;SDS011;35079;52.704;13.814;2023-01-28T07:45:13;18.05;;;8.63;;
49241;SDS011;35079;52.704;13.814;2023-01-28T07:47:39;18.92;;;9.18;;
49241;SDS011;35079;52.704;13.814;2023-01-28T07:50:05;21.30;;;9.32;;
49241;SDS011;35079;52.704;13.814;2023-01-28T07:52:31;16.92;;;8.30;;
49241;SDS011;35079;52.704;13.814;2023-01-28T07:55:03;16.42;;;8.45;;
49241;SDS011;35079;52.704;13.814;2023-01-28T07:57:29;15.18;;;8.32;;
49241;SDS011;35079;52.704;13.814;2023-01-28T07:59:55;14.02;;;8.02;;
49241;SDS011;35079;52.704;13.814;2023-01-28T08:02:21;14.85;;;7.45;;
49241;SDS011;35079;52.704;13.814;2023-01-28T08:04:46;14.10;;;8.23;;
49241;SDS011;35079;52.704;13.814;2023-01-28T08:07:12;16.83;;;8.55;;
49241;SDS011;35079;52.704;13.814;2023-01-28T08:09:38;16.55;;;8.75;;
49241;SDS011;35079;52.704;13.814;2023-01-28T08:12:03;15.10;;;7.75;;
49241;SDS011;35079;52.704;13.814;2023-01-28T08:14:29;18.50;;;9.32;;
49241;SDS011;35079;52.704;13.814;2023-01-28T08:16:56;15.90;;;8.57;;
49241;SDS011;35079;52.704;13.814;2023-01-28T08:19:22;15.00;;;8.82;;
49241;SDS011;35079;52.704;13.814;2023-01-28T08:21:51;12.18;;;7.68;;
49241;SDS011;35079;52.704;13.814;2023-01-28T08:24:16;14.00;;;7.85;;
49241;SDS011;35079;52.704;13.814;2023-01-28T08:26:46;16.15;;;8.63;;
49241;SDS011;35079;52.704;13.814;2023-01-28T08:29:12;16.77;;;8.75;;
49241;SDS011;35079;52.704;13.814;2023-01-28T08:31:38;16.85;;;8.55;;
49241;SDS011;35079;52.704;13.814;2023-01-28T08:34:04;15.70;;;8.52;;
49241;SDS011;35079;52.704;13.814;2023-01-28T08:36:29;16.08;;;7.85;;
49241;SDS011;35079;52.704;13.814;2023-01-28T08:38:55;20.40;;;8.85;;
49241;SDS011;35079;52.704;13.814;2023-01-28T08:41:21;12.35;;;6.82;;
49241;SDS011;35079;52.704;13.814;2023-01-28T08:43:47;14.05;;;7.78;;
49241;SDS011;35079;52.704;13.814;2023-01-28T08:46:16;12.52;;;6.70;;
49241;SDS011;35079;52.704;13.814;2023-01-28T08:48:42;14.43;;;7.40;;
49241;SDS011;35079;52.704;13.814;2023-01-28T08:51:08;11.40;;;7.28;;
49241;SDS011;35079;52.704;13.814;2023-01-28T08:53:33;6.75;;;3.85;;
49241;SDS011;35079;52.704;13.814;2023-01-28T08:55:59;9.30;;;4.68;;
49241;SDS011;35079;52.704;13.814;2023-01-28T08:58:25;7.50;;;4.63;;
49241;SDS011;35079;52.704;13.814;2023-01-28T09:00:51;8.82;;;4.55;;
49241;SDS011;35079;52.704;13.814;2023-01-28T09:03:17;8.77;;;4.43;;
49241;SDS011;35079;52.704;13.814;2023-01-28T09:05:42;8.45;;;4.72;;
49241;SDS011;35079;52.704;13.814;2023-01-28T09:08:09;6.45;;;4.50;;
49241;SDS011;35079;52.704;13.814;2023-01-28T09:10:37;12.77;;;4.78;;
49241;SDS011;35079;52.704;13.814;2023-01-28T09:13:04;8.73;;;4.05;;
49241;SDS011;35079;52.704;13.814;2023-01-28T09:15:32;5.13;;;2.63;;
49241;SDS011;35079;52.704;13.814;2023-01-28T09:17:58;6.32;;;3.35;;
49241;SDS011;35079;52.704;13.814;2023-01-28T09:20:24;4.70;;;2.70;;
49241;SDS011;35079;52.704;13.814;2023-01-28T09:22:50;4.40;;;2.75;;
49241;SDS011;35079;52.704;13.814;2023-01-28T09:25:15;3.85;;;2.50;;
49241;SDS011;35079;52.704;13.814;2023-01-28T09:27:41;4.03;;;2.80;;
49241;SDS011;35079;52.704;13.814;2023-01-28T09:30:07;3.58;;;2.30;;
49241;SDS011;35079;52.704;13.814;2023-01-28T09:32:34;3.90;;;2.50;;
49241;SDS011;35079;52.704;13.814;2023-01-28T09:35:00;5.45;;;2.95;;
49241;SDS011;35079;52.704;13.814;2023-01-28T09:37:25;2.80;;;2.30;;
49241;SDS011;35079;52.704;13.814;2023-01-28T09:39:51;7.22;;;3.38;;
49241;SDS011;35079;52.704;13.814;2023-01-28T09:45:12;6.32;;;3.20;;
49241;SDS011;35079;52.704;13.814;2023-01-28T09:47:55;3.92;;;2.53;;
49241;SDS011;35079;52.704;13.814;2023-01-28T09:50:31;5.15;;;3.28;;
49241;SDS011;35079;52.704;13.814;2023-01-28T09:53:02;6.57;;;3.33;;
49241;SDS011;35079;52.704;13.814;2023-01-28T09:55:35;4.28;;;2.63;;
49241;SDS011;35079;52.704;13.814;2023-01-28T09:58:13;2.75;;;1.55;;
49241;SDS011;35079;52.704;13.814;2023-01-28T10:04:15;5.00;;;2.65;;
49241;SDS011;35079;52.704;13.814;2023-01-28T10:17:42;4.43;;;1.90;;
49241;SDS011;35079;52.704;13.814;2023-01-28T10:22:46;2.30;;;1.48;;
49241;SDS011;35079;52.704;13.814;2023-01-28T10:25:27;2.67;;;1.92;;
49241;SDS011;35079;52.704;13.814;2023-01-28T10:27:54;4.80;;;1.63;;
49241;SDS011;35079;52.704;13.814;2023-01-28T10:30:24;2.20;;;2.00;;
49241;SDS011;35079;52.704;13.814;2023-01-28T10:32:52;2.08;;;1.85;;
49241;SDS011;35079;52.704;13.814;2023-01-28T10:35:36;10.30;;;2.22;;
49241;SDS011;35079;52.704;13.814;2023-01-28T10:38:07;3.20;;;2.00;;
49241;SDS011;35079;52.704;13.814;2023-01-28T10:40:41;2.70;;;1.83;;
49241;SDS011;35079;52.704;13.814;2023-01-28T10:43:08;4.47;;;2.00;;
49241;SDS011;35079;52.704;13.814;2023-01-28T10:45:42;1.40;;;1.30;;
49241;SDS011;35079;52.704;13.814;2023-01-28T10:48:22;1.60;;;1.50;;
49241;SDS011;35079;52.704;13.814;2023-01-28T10:50:51;1.58;;;1.40;;
49241;SDS011;35079;52.704;13.814;2023-01-28T10:53:33;2.53;;;1.42;;
49241;SDS011;35079;52.704;13.814;2023-01-28T10:56:04;3.45;;;1.30;;
49241;SDS011;35079;52.704;13.814;2023-01-28T10:58:35;1.52;;;1.42;;
49241;SDS011;35079;52.704;13.814;2023-01-28T11:01:12;2.78;;;1.33;;
49241;SDS011;35079;52.704;13.814;2023-01-28T11:03:37;2.47;;;1.38;;
49241;SDS011;35079;52.704;13.814;2023-01-28T11:06:05;3.95;;;1.42;;
49241;SDS011;35079;52.704;13.814;2023-01-28T11:08:41;2.75;;;1.42;;
49241;SDS011;35079;52.704;13.814;2023-01-28T11:11:12;1.83;;;1.45;;
49241;SDS011;35079;52.704;13.814;2023-01-28T11:13:47;2.88;;;1.30;;
49241;SDS011;35079;52.704;13.814;2023-01-28T11:16:17;1.67;;;1.38;;
49241;SDS011;35079;52.704;13.814;2023-01-28T11:18:47;1.90;;;1.42;;
49241;SDS011;35079;52.704;13.814;2023-01-28T11:21:24;1.90;;;1.10;;
49241;SDS011;35079;52.704;13.814;2023-01-28T11:23:53;2.90;;;1.33;;
49241;SDS011;35079;52.704;13.814;2023-01-28T11:26:24;2.38;;;1.40;;
49241;SDS011;35079;52.704;13.814;2023-01-28T11:28:54;1.95;;;1.30;;
49241;SDS011;35079;52.704;13.814;2023-01-28T11:31:21;3.75;;;1.55;;
49241;SDS011;35079;52.704;13.814;2023-01-28T11:33:53;3.55;;;1.23;;
49241;SDS011;35079;52.704;13.814;2023-01-28T11:36:23;2.47;;;1.63;;
49241;SDS011;35079;52.704;13.814;2023-01-28T11:38:57;2.25;;;1.70;;
49241;SDS011;35079;52.704;13.814;2023-01-28T11:41:45;1.90;;;1.65;;
49241;SDS011;35079;52.704;13.814;2023-01-28T11:44:18;4.13;;;1.80;;
49241;SDS011;35079;52.704;13.814;2023-01-28T11:58:18;1.50;;;1.40;;
49241;SDS011;35079;52.704;13.814;2023-01-28T12:19:55;2.35;;;1.58;;
49241;SDS011;35079;52.704;13.814;2023-01-28T12:22:51;2.22;;;1.73;;
49241;SDS011;35079;52.704;13.814;2023-01-28T12:44:50;1.45;;;1.35;;
49241;SDS011;35079;52.704;13.814;2023-01-28T12:47:26;2.85;;;1.20;;
49241;SDS011;35079;52.704;13.814;2023-01-28T12:50:03;1.45;;;1.35;;
49241;SDS011;35079;52.704;13.814;2023-01-28T12:52:43;1.65;;;1.50;;
49241;SDS011;35079;52.704;13.814;2023-01-28T12:55:14;2.15;;;1.50;;
49241;SDS011;35079;52.704;13.814;2023-01-28T12:57:45;1.30;;;1.20;;
49241;SDS011;35079;52.704;13.814;2023-01-28T13:03:13;1.40;;;1.30;;
49241;SDS011;35079;52.704;13.814;2023-01-28T13:05:47;4.05;;;1.67;;
49241;SDS011;35079;52.704;13.814;2023-01-28T13:10:46;3.28;;;1.40;;
49241;SDS011;35079;52.704;13.814;2023-01-28T13:13:14;1.92;;;1.45;;
49241;SDS011;35079;52.704;13.814;2023-01-28T13:16:01;4.28;;;1.77;;
49241;SDS011;35079;52.704;13.814;2023-01-28T13:21:13;1.92;;;1.40;;
49241;SDS011;35079;52.704;13.814;2023-01-28T13:23:49;2.05;;;1.38;;
49241;SDS011;35079;52.704;13.814;2023-01-28T13:26:28;2.90;;;1.42;;
49241;SDS011;35079;52.704;13.814;2023-01-28T13:34:27;2.35;;;1.85;;
49241;SDS011;35079;52.704;13.814;2023-01-28T13:42:33;3.00;;;1.77;;
49241;SDS011;35079;52.704;13.814;2023-01-28T13:47:41;1.92;;;1.70;;
49241;SDS011;35079;52.704;13.814;2023-01-28T13:50:14;2.83;;;1.55;;
49241;SDS011;35079;52.704;13.814;2023-01-28T13:52:57;2.33;;;1.90;;
49241;SDS011;35079;52.704;13.814;2023-01-28T13:55:30;3.42;;;1.40;;
49241;SDS011;35079;52.704;13.814;2023-01-28T13:58:08;4.38;;;1.70;;
49241;SDS011;35079;52.704;13.814;2023-01-28T14:06:44;1.80;;;1.70;;
49241;SDS011;35079;52.704;13.814;2023-01-28T14:12:46;1.65;;;1.55;;
49241;SDS011;35079;52.704;13.814;2023-01-28T14:18:42;2.80;;;1.90;;
49241;SDS011;35079;52.704;13.814;2023-01-28T14:21:14;2.03;;;1.80;;
49241;SDS011;35079;52.704;13.814;2023-01-28T14:23:49;4.90;;;3.08;;
49241;SDS011;35079;52.704;13.814;2023-01-28T14:26:29;2.30;;;1.92;;
49241;SDS011;35079;52.704;13.814;2023-01-28T14:29:19;10.88;;;5.88;;
49241;SDS011;35079;52.704;13.814;2023-01-28T14:32:13;9.75;;;5.82;;
49241;SDS011;35079;52.704;13.814;2023-01-28T14:34:42;10.80;;;7.03;;
49241;SDS011;35079;52.704;13.814;2023-01-28T14:37:17;14.40;;;7.35;;
49241;SDS011;35079;52.704;13.814;2023-01-28T14:39:53;12.63;;;6.80;;
49241;SDS011;35079;52.704;13.814;2023-01-28T14:42:24;17.45;;;8.88;;
49241;SDS011;35079;52.704;13.814;2023-01-28T14:48:10;7.20;;;3.92;;
49241;SDS011;35079;52.704;13.814;2023-01-28T14:51:01;17.20;;;9.20;;
49241;SDS011;35079;52.704;13.814;2023-01-28T15:01:59;2.88;;;1.85;;
49241;SDS011;35079;52.704;13.814;2023-01-28T15:04:29;1.40;;;1.27;;
49241;SDS011;35079;52.704;13.814;2023-01-28T15:06:56;1.00;;;1.00;;
49241;SDS011;35079;52.704;13.814;2023-01-28T15:09:39;1.70;;;1.20;;
49241;SDS011;35079;52.704;13.814;2023-01-28T15:12:05;1.42;;;1.00;;
49241;SDS011;35079;52.704;13.814;2023-01-28T15:14:32;1.23;;;1.00;;
49241;SDS011;35079;52.704;13.814;2023-01-28T15:16:58;1.58;;;1.48;;
49241;SDS011;35079;52.704;13.814;2023-01-28T15:19:28;1.00;;;1.00;;
49241;SDS011;35079;52.704;13.814;2023-01-28T15:24:25;2.03;;;0.90;;
49241;SDS011;35079;52.704;13.814;2023-01-28T15:26:55;1.77;;;1.30;;
49241;SDS011;35079;52.704;13.814;2023-01-28T15:31:57;2.22;;;1.20;;
49241;SDS011;35079;52.704;13.814;2023-01-28T15:34:23;1.35;;;1.20;;
49241;SDS011;35079;52.704;13.814;2023-01-28T15:36:54;1.27;;;1.10;;
49241;SDS011;35079;52.704;13.814;2023-01-28T15:39:21;1.13;;;1.10;;
49241;SDS011;35079;52.704;13.814;2023-01-28T15:42:04;1.35;;;1.25;;
49241;SDS011;35079;52.704;13.814;2023-01-28T15:47:25;1.95;;;1.10;;
49241;SDS011;35079;52.704;13.814;2023-01-28T15:49:58;1.33;;;1.27;;
49241;SDS011;35079;52.704;13.814;2023-01-28T15:52:31;3.00;;;1.23;;
49241;SDS011;35079;52.704;13.814;2023-01-28T15:55:05;2.80;;;1.23;;
49241;SDS011;35079;52.704;13.814;2023-01-28T15:57:33;1.25;;;1.17;;
49241;SDS011;35079;52.704;13.814;2023-01-28T16:02:31;1.27;;;1.15;;
49241;SDS011;35079;52.704;13.814;2023-01-28T16:05:01;2.42;;;1.00;;
49241;SDS011;35079;52.704;13.814;2023-01-28T16:07:30;1.75;;;1.08;;
49241;SDS011;35079;52.704;13.814;2023-01-28T16:09:57;1.58;;;1.13;;
49241;SDS011;35079;52.704;13.814;2023-01-28T16:12:26;1.98;;;1.17;;
49241;SDS011;35079;52.704;13.814;2023-01-28T16:15:01;1.20;;;1.10;;
49241;SDS011;35079;52.704;13.814;2023-01-28T16:17:44;0.98;;;0.98;;
49241;SDS011;35079;52.704;13.814;2023-01-28T16:20:19;1.05;;;1.00;;
49241;SDS011;35079;52.704;13.814;2023-01-28T16:25:27;1.20;;;1.08;;
49241;SDS011;35079;52.704;13.814;2023-01-28T16:28:04;1.27;;;1.13;;
49241;SDS011;35079;52.704;13.814;2023-01-28T16:30:40;1.02;;;1.00;;
49241;SDS011;35079;52.704;13.814;2023-01-28T16:33:15;1.77;;;1.10;;
49241;SDS011;35079;52.704;13.814;2023-01-28T16:35:46;1.08;;;1.00;;
49241;SDS011;35079;52.704;13.814;2023-01-28T16:38:12;1.45;;;1.35;;
49241;SDS011;35079;52.704;13.814;2023-01-28T16:40:41;1.60;;;1.30;;
49241;SDS011;35079;52.704;13.814;2023-01-28T16:43:10;1.90;;;1.13;;
49241;SDS011;35079;52.704;13.814;2023-01-28T16:45:37;2.78;;;1.58;;
49241;SDS011;35079;52.704;13.814;2023-01-28T16:48:03;1.88;;;1.65;;
49241;SDS011;35079;52.704;13.814;2023-01-28T16:50:30;4.57;;;2.90;;
49241;SDS011;35079;52.704;13.814;2023-01-28T16:52:56;8.25;;;4.10;;
49241;SDS011;35079;52.704;13.814;2023-01-28T16:55:23;4.88;;;2.53;;
49241;SDS011;35079;52.704;13.814;2023-01-28T16:57:50;5.00;;;3.30;;
49241;SDS011;35079;52.704;13.814;2023-01-28T17:00:22;5.95;;;3.33;;
49241;SDS011;35079;52.704;13.814;2023-01-28T17:02:52;5.32;;;2.70;;
49241;SDS011;35079;52.704;13.814;2023-01-28T17:05:18;2.80;;;2.42;;
49241;SDS011;35079;52.704;13.814;2023-01-28T17:07:45;4.18;;;2.60;;
49241;SDS011;35079;52.704;13.814;2023-01-28T17:10:17;3.25;;;2.42;;
49241;SDS011;35079;52.704;13.814;2023-01-28T17:12:44;3.33;;;2.30;;
49241;SDS011;35079;52.704;13.814;2023-01-28T17:15:12;2.92;;;2.10;;
49241;SDS011;35079;52.704;13.814;2023-01-28T17:17:38;6.47;;;2.53;;
49241;SDS011;35079;52.704;13.814;2023-01-28T17:20:04;2.78;;;2.10;;
49241;SDS011;35079;52.704;13.814;2023-01-28T17:22:30;1.75;;;1.50;;
49241;SDS011;35079;52.704;13.814;2023-01-28T17:24:56;3.22;;;2.30;;